createdAt,value
2022-12-27T12:41:50.984Z,101726.13
2022-12-27T12:44:37.913Z,101729.97
2022-12-27T12:47:22.976Z,101730.88
2022-12-27T12:49:57.579Z,101727.63
2022-12-27T12:52:29.441Z,101720.88
2022-12-27T12:55:21.816Z,101716.69
2022-12-27T12:57:55.185Z,101709.31
2022-12-27T13:00:31.246Z,101712.59
2022-12-27T13:03:35.540Z,101707.56
2022-12-27T13:06:40.061Z,101713.88
2022-12-27T13:09:48.931Z,101703.81
2022-12-27T13:12:24.550Z,101711.34
2022-12-27T13:15:09.720Z,101699.03
2022-12-27T13:17:46.097Z,101698.78
2022-12-27T13:20:29.657Z,101698.59
2022-12-27T13:23:35.351Z,101691.69
2022-12-27T13:26:17.207Z,101690.50
2022-12-27T13:28:56.868Z,101679.53
2022-12-27T13:31:32.584Z,101687.25
2022-12-27T13:34:40.676Z,101688.81
2022-12-27T13:37:36.663Z,101694.22
2022-12-27T13:40:20.813Z,101695.53
2022-12-27T13:43:12.399Z,101695.44
2022-12-27T13:46:11.938Z,101692.88
2022-12-27T13:49:17.169Z,101689.69
2022-12-27T13:51:46.805Z,101694.19
2022-12-27T13:54:50.974Z,101693.34
2022-12-27T13:57:51.411Z,101696.69
2022-12-27T14:00:22.751Z,101690.78
2022-12-27T14:03:25.529Z,101698.75
2022-12-27T14:06:01.877Z,101694.94
2022-12-27T14:08:40.788Z,101695.56
2022-12-27T14:11:22.179Z,101687.78
2022-12-27T14:13:50.483Z,101691.59
2022-12-27T14:16:30.792Z,101688.22
2022-12-27T14:19:29.795Z,101686.75
2022-12-27T14:21:59.566Z,101686.50
2022-12-27T14:24:48.131Z,101671.81
2022-12-27T14:27:33.095Z,101672.81
2022-12-27T14:30:21.739Z,101674.44
2022-12-27T14:33:10.187Z,101679.19
2022-12-27T14:35:58.879Z,101669.78
2022-12-27T14:39:03.177Z,101670.88
2022-12-27T14:42:04.896Z,101678.28
2022-12-27T14:44:59.387Z,101684.63
2022-12-27T14:47:38.228Z,101679.00
2022-12-27T14:50:42.791Z,101669.56
2022-12-27T14:53:35.821Z,101671.78
2022-12-27T14:56:36.551Z,101665.44
2022-12-27T14:59:42.099Z,101664.63
2022-12-27T15:02:33.953Z,101658.25
2022-12-27T15:05:31.513Z,101660.06
2022-12-27T15:08:01.075Z,101667.84
2022-12-27T15:10:56.955Z,101665.19
2022-12-27T15:13:39.683Z,101657.81
2022-12-27T15:16:16.676Z,101656.88
2022-12-27T15:18:58.506Z,101660.00
2022-12-27T15:21:43.910Z,101660.31
2022-12-27T15:24:24.900Z,101652.75
2022-12-27T15:27:07.940Z,101649.19
2022-12-27T15:29:59.527Z,101662.75
2022-12-27T15:32:37.361Z,101653.00
2022-12-27T15:35:28.832Z,101657.50
2022-12-27T15:38:04.598Z,101659.50
2022-12-27T15:40:33.914Z,101672.38
2022-12-27T15:43:05.351Z,101665.75
2022-12-27T15:45:53.971Z,101666.19
2022-12-27T15:48:35.762Z,101662.38
2022-12-27T15:51:31.903Z,101663.28
2022-12-27T15:54:07.635Z,101663.19
2022-12-27T15:56:49.587Z,101666.88
2022-12-27T15:59:34.470Z,101672.09
2022-12-27T16:02:22.778Z,101667.19
2022-12-27T16:05:17.165Z,101667.50
2022-12-27T16:08:00.663Z,101649.25
2022-12-27T16:10:31.950Z,101647.38
2022-12-27T16:13:20.946Z,101646.13
2022-12-27T16:15:47.701Z,101638.09
2022-12-27T16:18:23.638Z,101639.75
2022-12-27T16:21:01.904Z,101646.66
2022-12-27T16:23:36.092Z,101642.72
2022-12-27T16:26:19.718Z,101644.75
2022-12-27T16:29:06.949Z,101640.13
2022-12-27T16:31:45.428Z,101636.66
2022-12-27T16:34:13.867Z,101635.59
2022-12-27T16:36:46.726Z,101642.81
2022-12-27T16:39:51.831Z,101636.84
2022-12-27T16:42:34.132Z,101635.81
2022-12-27T16:45:23.540Z,101636.00
2022-12-27T16:48:10.328Z,101623.03
2022-12-27T16:50:58.849Z,101629.25
2022-12-27T16:53:44.800Z,101630.13
2022-12-27T16:56:21.905Z,101618.22
2022-12-27T16:58:49.214Z,101616.25
2022-12-27T17:01:19.014Z,101619.75
2022-12-27T17:03:47.944Z,101618.75
2022-12-27T17:06:34.318Z,101620.34
2022-12-27T17:09:10.534Z,101621.41
2022-12-27T17:11:52.604Z,101623.50
2022-12-27T17:14:34.681Z,101622.72
2022-12-27T17:17:15.945Z,101616.56
2022-12-27T17:19:52.016Z,101619.97
2022-12-27T17:22:20.326Z,101622.22
2022-12-27T17:24:48.592Z,101621.19
2022-12-27T17:27:56.862Z,101616.06
2022-12-27T17:30:42.976Z,101621.13
2022-12-27T17:33:23.439Z,101617.00
2022-12-27T17:36:09.034Z,101617.75
2022-12-27T17:39:00.343Z,101605.63
2022-12-27T17:41:52.011Z,101602.72
2022-12-27T17:44:39.195Z,101599.56
2022-12-27T17:47:30.859Z,101591.09
2022-12-27T17:50:03.547Z,101593.97
2022-12-27T17:52:49.078Z,101601.91
2022-12-27T17:55:38.461Z,101585.47
2022-12-27T17:58:09.202Z,101576.75
2022-12-27T18:00:44.384Z,101580.38
2022-12-27T18:03:13.420Z,101577.69
2022-12-27T18:05:43.807Z,101570.50
2022-12-27T18:08:25.223Z,101585.16
2022-12-27T18:10:52.034Z,101579.00
2022-12-27T18:13:22.738Z,101570.34
2022-12-27T18:15:50.538Z,101578.41
2022-12-27T18:18:23.735Z,101569.81
2022-12-27T18:20:56.944Z,101567.13
2022-12-27T18:23:23.701Z,101563.53
2022-12-27T18:26:14.435Z,101558.69
2022-12-27T18:28:43.213Z,101554.53
2022-12-27T18:31:34.951Z,101562.84
2022-12-27T18:34:07.364Z,101568.69
2022-12-27T18:36:59.004Z,101559.06
2022-12-27T18:39:30.139Z,101551.16
2022-12-27T18:41:59.227Z,101548.38
2022-12-27T18:44:31.892Z,101545.16
2022-12-27T18:47:02.563Z,101545.84
2022-12-27T18:49:37.149Z,101540.53
2022-12-27T18:52:21.236Z,101535.84
2022-12-27T18:54:48.102Z,101540.28
2022-12-27T18:57:36.991Z,101530.88
2022-12-27T19:00:26.365Z,101532.13
2022-12-27T19:02:55.159Z,101532.50
2022-12-27T19:05:24.244Z,101531.88
2022-12-27T19:07:55.914Z,101533.47
2022-12-27T19:10:28.979Z,101525.81
2022-12-27T19:12:56.566Z,101526.78
2022-12-27T19:15:30.949Z,101526.13
2022-12-27T19:18:00.887Z,101518.31
2022-12-27T19:20:31.581Z,101507.97
2022-12-27T19:23:01.830Z,101509.78
2022-12-27T19:25:36.347Z,101512.47
2022-12-27T19:28:12.181Z,101504.22
2022-12-27T19:30:43.605Z,101509.50
2022-12-27T19:33:24.400Z,101506.97
2022-12-27T19:35:51.606Z,101513.88
2022-12-27T19:38:26.687Z,101513.91
2022-12-27T19:41:03.255Z,101507.81
2022-12-27T19:43:38.265Z,101505.09
2022-12-27T19:46:05.586Z,101491.88
2022-12-27T19:48:32.522Z,101495.09
2022-12-27T19:50:59.698Z,101492.66
2022-12-27T19:53:36.721Z,101490.72
2022-12-27T19:56:03.572Z,101488.69
2022-12-27T19:58:31.534Z,101489.75
2022-12-27T20:00:58.734Z,101485.72
2022-12-27T20:03:26.051Z,101480.44
2022-12-27T20:06:14.132Z,101471.25
2022-12-27T20:08:49.502Z,101465.19
2022-12-27T20:11:19.191Z,101465.91
2022-12-27T20:13:46.696Z,101467.94
2022-12-27T20:16:15.965Z,101458.81
2022-12-27T20:18:44.631Z,101453.63
2022-12-27T20:21:17.116Z,101457.13
2022-12-27T20:23:44.360Z,101460.84
2022-12-27T20:26:13.169Z,101458.53
2022-12-27T20:28:39.926Z,101453.81
2022-12-27T20:31:12.601Z,101451.69
2022-12-27T20:33:39.593Z,101450.19
2022-12-27T20:36:07.011Z,101449.91
2022-12-27T20:38:33.963Z,101441.97
2022-12-27T20:41:12.388Z,101437.00
2022-12-27T20:43:39.444Z,101437.25
2022-12-27T20:46:08.936Z,101444.78
2022-12-27T20:48:39.824Z,101440.84
2022-12-27T20:51:16.614Z,101435.16
2022-12-27T20:53:43.456Z,101438.75
2022-12-27T20:56:12.785Z,101431.88
2022-12-27T20:58:39.941Z,101434.41
2022-12-27T21:01:13.229Z,101433.25
2022-12-27T21:03:40.484Z,101421.25
2022-12-27T21:06:11.981Z,101417.16
2022-12-27T21:08:46.506Z,101418.75
2022-12-27T21:11:19.492Z,101430.53
2022-12-27T21:13:48.017Z,101426.84
2022-12-27T21:16:20.706Z,101423.06
2022-12-27T21:18:48.109Z,101429.41
2022-12-27T21:21:19.625Z,101429.97
2022-12-27T21:23:48.233Z,101438.47
2022-12-27T21:26:20.061Z,101430.88
2022-12-27T21:28:47.289Z,101424.41
2022-12-27T21:31:16.293Z,101420.22
2022-12-27T21:33:43.195Z,101408.41
2022-12-27T21:36:16.483Z,101410.25
2022-12-27T21:38:43.524Z,101408.13
2022-12-27T21:41:16.175Z,101408.56
2022-12-27T21:43:43.552Z,101406.84
2022-12-27T21:46:15.461Z,101410.06
2022-12-27T21:48:42.829Z,101408.47
2022-12-27T21:51:14.644Z,101407.22
2022-12-27T21:53:42.528Z,101404.22
2022-12-27T21:56:11.688Z,101402.69
2022-12-27T21:58:39.668Z,101400.06
2022-12-27T22:01:13.071Z,101392.75
2022-12-27T22:03:42.380Z,101395.72
2022-12-27T22:06:11.675Z,101396.91
2022-12-27T22:08:38.742Z,101395.53
2022-12-27T22:11:05.590Z,101383.72
2022-12-27T22:13:33.233Z,101380.44
2022-12-27T22:16:02.585Z,101378.09
2022-12-27T22:18:37.013Z,101378.31
2022-12-27T22:21:06.022Z,101374.91
2022-12-27T22:23:34.136Z,101378.41
2022-12-27T22:26:01.262Z,101374.28
2022-12-27T22:28:28.607Z,101369.75
2022-12-27T22:30:55.500Z,101366.09
2022-12-27T22:33:22.267Z,101376.25
2022-12-27T22:35:49.102Z,101375.09
2022-12-27T22:38:15.697Z,101363.41
2022-12-27T22:40:46.074Z,101365.50
2022-12-27T22:43:13.906Z,101369.38
2022-12-27T22:45:42.284Z,101361.78
2022-12-27T22:48:08.912Z,101368.28
2022-12-27T22:50:37.650Z,101371.53
2022-12-27T22:53:04.519Z,101370.78
2022-12-27T22:55:31.181Z,101368.69
2022-12-27T22:57:57.991Z,101364.53
2022-12-27T23:00:24.676Z,101358.28
2022-12-27T23:02:51.412Z,101359.75
2022-12-27T23:05:18.148Z,101351.94
2022-12-27T23:08:05.048Z,101348.91
2022-12-27T23:10:31.543Z,101352.31
2022-12-27T23:12:58.133Z,101343.38
2022-12-27T23:15:25.029Z,101349.09
2022-12-27T23:17:52.356Z,101328.78
2022-12-27T23:20:19.180Z,101330.06
2022-12-27T23:22:45.777Z,101340.56
2022-12-27T23:25:12.445Z,101338.81
2022-12-27T23:27:39.078Z,101331.63
2022-12-27T23:30:06.330Z,101330.25
2022-12-27T23:32:33.271Z,101320.59
2022-12-27T23:34:59.891Z,101322.53
2022-12-27T23:37:26.507Z,101320.34
2022-12-27T23:39:53.294Z,101319.38
2022-12-27T23:42:19.905Z,101314.41
2022-12-27T23:44:46.709Z,101317.28
2022-12-27T23:47:13.358Z,101316.06
2022-12-27T23:49:40.026Z,101305.25
2022-12-27T23:52:06.661Z,101304.31
2022-12-27T23:54:33.260Z,101302.66
2022-12-27T23:57:22.320Z,101298.50
2022-12-27T23:59:46.548Z,101296.47
